Texas Shootout - LOFT FLYING

Station: LOFT CHECK - T Race

Distance: 1 Miles    

Release: 11-Sep-2021 07:15

Weather Release:    Arrival:

Wind at Release:     Wind at Arrival:

Temp at Release: °    Temp at Arrival: °

Lofts: 63

Birds: 340

Clocked: 339

Good Luck to Everyone!
Drops Pos Breeder Pigeon Name Color Sex Ent Arrival Speed To Win Elg Pd
1 H & H Loft - TX 4339-AU21-VITA BBWF C 1 08:43:50.50 19.811 00:00:00 Yes
2 Gossett & Son - TX 0119-AU21-GOSS BB H 1 08:43:51.50 19.807 00:00:01 Yes
3 Team Taylor's & Berry's - TX 3182-AU21-TEXA BB C 1 08:43:52.50 19.803 00:00:02 Yes
4 Vangruen Syndicate - CA 1167-AU21-VANG BBWF C 1 08:43:53.40 19.800 00:00:03 Yes
5 Any Given Day Loft - TX 21159-AU21-ANYG DCPD H 1 08:43:53.50 19.799 00:00:03 Yes
6 Sovereign Loft - TX 0089-AU21-SOV BB C 1 08:43:54.80 19.795 00:00:04 Yes
7 Butch Shoop - TX 0097-AU21-GTF BB H 1 08:43:55.50 19.792 00:00:05 Yes
8 Venn Family Loft - WY 11530-AU21-ARPU BB C 1 08:43:55.80 19.791 00:00:05 Yes
8 Nemelka Racing Pigeon Loft - UT 1121-AU21-NRPL Psycho Killer x Yula RC H 1 08:43:55.80 19.791 00:00:05 Yes
10 Sky Dancer Loft - TX 0780-AU21-WWC BCSP C 1 08:43:56.60 19.788 00:00:06 Yes
11 Flying D Loft - TX 1429-AU21-FLYN Flyd 717 / Flyd 744 BB H 1 08:43:57.80 19.783 00:00:08 Yes
12 Corso & Jean - LA 81336-AU21-ARPU BC C 1 08:43:58.20 19.782 00:00:08 Yes
13 Elton Dinga - TX 0374-AU21-DALL Wouters 715 x Jos 860 BB H 1 08:43:58.50 19.781 00:00:08 Yes
14 Hi-Cal Connection - CA 0781-AU21-HICA BB C 1 08:43:59.00 19.779 00:00:09 Yes
15 Bad Company - OK 0143-AU21-TULS BBWF H 1 08:43:59.30 19.778 00:00:09 Yes
15 Patrick Kwan - CA 2184-AU21-KWAN BC H 1 08:43:59.30 19.778 00:00:09 Yes
15 Larry Payne - TX 0626-AU21-LPL BB C 1 08:43:59.30 19.778 00:00:09 Yes
18 Corso & Jean - LA 81386-AU21-ARPU BB C 2 08:43:59.80 19.776 00:00:09 Yes
19 Siegel's - LA 21399-AU21-A BC C 1 08:44:00.70 19.773 00:00:10 Yes
19 Hillbilly Loft - TX 2261-AU21-AA 37584 x 315 golden pr BCWF H 1 08:44:00.70 19.773 00:00:10 Yes
21 Blue Dog Express - TX 0463-AU21-DENT BB C 1 08:44:01.00 19.772 00:00:11 Yes
22 Gold Star Loft - FL 1881-AU21-STON BC H 1 08:44:01.10 19.771 00:00:11 Yes
23 Nemelka Racing Pigeon Loft - UT 1122-AU21-NRPL Psycho Killer x Yula BC H 2 08:44:01.50 19.770 00:00:11 Yes
24 Gold Star Loft - FL 1899-AU21-STON BC H 2 08:44:01.60 19.769 00:00:11 Yes
25 Tex-Mex Loft - TX 1183-AU21-NSL Brujo or Bruja GRIZ C 1 08:44:01.90 19.768 00:00:12 Yes
26 Nemelka Racing Pigeon Loft - UT 1111-AU21-NRPL Florian x 99 BB H 3 08:44:02.30 19.767 00:00:12 Yes
27 Bad Company - OK 0129-AU21-TULS BB H 2 08:44:02.70 19.765 00:00:12 Yes
28 Butch Shoop - TX 0232-AU21-QUES BB H 2 08:44:03.10 19.764 00:00:13 Yes
29 Malone's Loft - TX 0328-AU21-DENT Typhoon BB C 1 08:44:03.60 19.762 00:00:13 Yes
30 Jojos International - TX 6265-AU21-GJOJ BCWF H 1 08:44:04.10 19.760 00:00:14 Yes
30 Redtex - TX 0323-AU21-REDT kemosabe PNWF C 1 08:44:04.10 19.760 00:00:14 Yes
32 Team Taylor's & Berry's - TX 3118-AU21-TEX BC C 2 08:44:04.40 19.759 00:00:14 Yes
33 Nemeth Family Loft - CA 0884-AU21-NEME BB H 1 08:44:04.90 19.757 00:00:15 Yes
34 Hillbilly Loft - TX 2267-AU21-AA be 743 x 374 yskout BC C 2 08:44:05.40 19.755 00:00:15 Yes
35 Nemeth Family Loft - CA 0900-AU21-NEME BB H 2 08:44:05.70 19.754 00:00:15 Yes
36 Larry Payne - TX 0630-AU21-LPL BB C 2 08:44:06.10 19.753 00:00:16 Yes
37 Nestle Loft - TX 30241-AU21-AA BCWF H 1 08:44:06.20 19.752 00:00:16 Yes
38 Brown & Evans - TX 0987-AU21-WF BBWF C 1 08:44:06.90 19.750 00:00:16 Yes
39 Wartick Family Loft - KS 0204-AU21-AIR BB C 1 08:44:07.20 19.749 00:00:17 Yes
40 Crestview Loft - TX 21761-AU21-CRES BB H 1 08:44:07.60 19.747 00:00:17 Yes
41 Johnson / Perron - LA 0654-AU21-LAF DC H 1 08:44:07.90 19.746 00:00:18 Yes
41 Elton Dinga - TX 0369-AU21-DALL Jansen 24256 x Barco16908 DC H 2 08:44:07.90 19.746 00:00:18 Yes
43 Flying D Loft - TX 1515-AU21-FLYN FLYD 1201 / FLYD 724 BC H 2 08:44:08.80 19.743 00:00:18 Yes
44 Team Taylor's & Berry's - TX 8189-AU21-TEXA BB C 3 08:44:09.30 19.741 00:00:19 Yes
45 The Red Dirt Gang - OK 29646-AU21-FOYS BB H 1 08:44:10.00 19.738 00:00:20 Yes
45 Gossett & Son - TX 0112-AU21-GOSS BB H 2 08:44:10.10 19.738 00:00:20 Yes
47 Mc Laughlin Lofts - MA 0232-AU21-MCLO CHWF H 1 08:44:10.70 19.736 00:00:20 Yes
48 Baudy Loft - LA 21187-AU21-MET BB C 1 08:44:11.40 19.733 00:00:21 Yes
49 Nemelka Racing Pigeon Loft - UT 1120-AU21-NRPL Son Bono x Dab of Ranch BB H 4 08:44:13.00 19.727 00:00:23 Yes
50 Tx Lin Loft - TX 26633-AU21-AA BC H 1 08:44:14.00 19.724 00:00:24 Yes
51 Clear Springs Loft - FL 0130-AU21-WARD RC C 1 08:44:23.20 19.690 00:00:33 Yes
52 Bad Company - OK 1096-AU21-CFL BB H 3 08:44:24.60 19.685 00:00:34 Yes
53 SouthernLegacyLoft - TX 2137-AU21-SLL BC H 1 08:44:27.00 19.676 00:00:37 Yes
54 Brown & Evans - TX 0977-AU21-WF BB H 2 08:44:30.80 19.662 00:00:40 Yes
55 R & D Racing 2 - ON 20314-CU21-CU BC H 1 08:44:33.30 19.653 00:00:43 Yes
56 Any Given Day Loft - TX 21193-AU21-ANYG BC H 2 08:44:35.60 19.644 00:00:45 Yes
57 Any Given Day Loft - TX 21178-AU21-ANYG BC C 3 08:44:36.20 19.642 00:00:46 Yes
58 Nestle Loft - TX 30248-AU21-AA BBPD H 2 08:44:37.20 19.638 00:00:47 Yes
59 Any Given Day Loft - TX 21146-AU21-ANYG BC C 4 08:44:37.50 19.637 00:00:47 Yes
60 Any Given Day Loft - TX 21137-AU21-ANYG BC H 5 08:44:38.00 19.636 00:00:48 Yes
61 Malone's Loft - TX 0327-AU21-DENT Spitfire BB H 2 08:44:38.80 19.633 00:00:48 Yes
62 Mc Laughlin Lofts - MA 0254-AU21-MCLO DCTC H 2 08:44:39.10 19.632 00:00:49 Yes
62 Westfall/Lindsay - MO 21218-AU21-BOOT BB C 1 08:44:39.10 19.632 00:00:49 Yes
64 Wood Loft - TX 0780-AU21-DENT BB C 1 08:44:39.40 19.630 00:00:49 Yes
65 Ledet-Gutrz - LA 21549-AU21-LEDE BCWF H 1 08:44:39.90 19.629 00:00:49 Yes
66 Gossett & Son - TX 0116-AU21-GOSS BB C 3 08:44:40.00 19.628 00:00:50 Yes
67 The Red Dirt Gang - OK 10202-AU21-FOYS BB H 2 08:44:40.30 19.627 00:00:50 Yes
68 Patrick Kwan - CA 2180-AU21-KWAN BC H 2 08:44:40.70 19.626 00:00:50 Yes
69 Brown & Evans - TX 0984-AU21-WF BB H 3 08:44:41.20 19.624 00:00:51 Yes
70 Butch Shoop - TX 0185-AU21-QUES BB H 3 08:44:41.70 19.622 00:00:51 Yes
71 Wartick Family Loft - KS 9519-AU21-ARPU BBWF H 2 08:44:42.20 19.620 00:00:52 Yes
72 Sovereign Loft - TX 0096-AU21-SOV DC C 2 08:44:42.50 19.619 00:00:52 Yes
72 Patrick Kwan - CA 2177-AU21-KWAN DCPD H 3 08:44:42.50 19.619 00:00:52 Yes
72 Nestle Loft - TX 30249-AU21-AA DCSP H 3 08:44:42.60 19.619 00:00:52 Yes
75 Elton Dinga - TX 2324-AU21-UTEN Kruger 1905 x Klaas 12089 BB C 3 08:44:42.80 19.618 00:00:52 Yes
76 Wood Loft - TX 0772-AU21-DENT BC C 2 08:44:43.10 19.617 00:00:53 Yes
76 Hillbilly Loft - TX 2285-AU21-AA 3117 X 17684 BB H 3 08:44:43.20 19.617 00:00:53 Yes
78 Baudy Loft - LA 0136-AU21-DELT BCPD H 2 08:44:43.70 19.615 00:00:53 Yes
79 Ledet-Gutrz - LA 21164-AU21-LEDE BC H 2 08:44:44.00 19.614 00:00:54 Yes
80 Dolly's Loft - TX 21751-AU21-CRES BB C 1 08:44:44.20 19.613 00:00:54 Yes
80 English Syndicate - UK 19459-GB21-E BB C 1 08:44:44.30 19.613 00:00:54 Yes
82 Any Given Day Loft - TX 21214-AU21-ANYG BB H 7 08:44:44.60 19.611 00:00:54 Yes
82 Dea Loft - AZ 0043-AU21-DEA BBWF H 1 08:44:44.70 19.611 00:00:54 Yes
82 Two-Be-Won - NV 21068-AU21-TBW 2907-434 BB C 1 08:44:44.70 19.611 00:00:54 Yes
82 Any Given Day Loft - TX 21173-AU21-ANYG DC H 6 08:44:44.70 19.611 00:00:54 Yes
86 Corso & Jean - LA 81356-AU21-ARPU BSLT H 3 08:44:45.20 19.609 00:00:55 Yes
87 Pacos Lofts - CA 0163-AU21-PACO BB C 1 08:44:45.50 19.608 00:00:55 Yes
87 R & D Racing 2 - ON 7523-CU21-CU CHWF H 2 08:44:45.50 19.608 00:00:55 Yes
89 Dan & Greg Coury - AZ 1214-AU21-PEGA DCWF C 1 08:44:45.90 19.607 00:00:55 Yes
89 Elton Dinga - TX 2370-AU21-UTEN Purdey 1286 x Fiore 23686 BB H 4 08:44:45.90 19.607 00:00:55 Yes
91 Hillbilly Loft - TX 2271-AU21-AA 2560 X 63503 BB H 4 08:44:46.00 19.606 00:00:56 Yes
91 Dan & Greg Coury - AZ 0730-AU21-AONE BC C 2 08:44:46.00 19.606 00:00:56 Yes
93 Wolf Pac - TX 0459-AU21-DENT BB C 1 08:44:46.40 19.605 00:00:56 Yes
93 Hillbilly Loft - TX 2287-AU21-AA 3196 X 327 BB C 5 08:44:46.40 19.605 00:00:56 Yes
93 Wartick Family Loft - KS 0217-AU21-AIR BSPL H 3 08:44:46.40 19.605 00:00:56 Yes
96 Dea Loft - AZ 0035-AU21-DEA BB C 2 08:44:47.00 19.603 00:00:57 Yes
96 Bill Kluge - TX 1111-AU21-COLD 8 BB C 1 08:44:47.00 19.603 00:00:57 Yes
98 Dea Loft - AZ 0033-AU21-DEA BC H 3 08:44:47.30 19.602 00:00:57 Yes
99 Siegel's - LA 21429-AU21-A BB H 2 08:44:47.40 19.601 00:00:57 Yes
99 Wartick Family Loft - KS 0206-AU21-AIR BB C 4 08:44:47.40 19.601 00:00:57 Yes

There are 339 bird records

Note: These Race Results are unofficial and subject to change until verified by the Race Committee and declared final.